Time;durP1;ratioP1;P1;durP2;ratioP2;P2;SDS_P1;SDS_P2;PMS_P1;PMS_P2;Temp;Humidity;BMP_temperature;BMP_pressure;BME280_temperature;BME280_humidity;BME280_pressure;Samples;Min_cycle;Max_cycle;Signal;HPM_P1;HPM_P2
2023/10/17 00:00:33;;;;;;;8.32;2.50;;;;;;;22.22;63.40;102137.38;5023266;28;20052;-48
2023/10/17 00:02:59;;;;;;;6.38;2.97;;;;;;;22.23;63.41;102141.78;5034462;28;20519;-54
2023/10/17 00:05:58;;;;;;;4.07;2.40;;;;;;;22.20;63.30;102128.53;4983084;28;20270;-46
2023/10/17 00:08:27;;;;;;;6.85;2.80;;;;;;;22.21;63.56;102133.78;4951656;28;20045;-47
2023/10/17 00:10:53;;;;;;;6.47;2.35;;;;;;;22.21;63.56;102127.44;4990872;28;20076;-46
2023/10/17 00:13:25;;;;;;;3.10;2.25;;;;;;;22.20;63.18;102123.03;4992077;28;21919;-46
2023/10/17 00:15:52;;;;;;;4.85;2.50;;;;;;;22.20;63.28;102125.78;4991349;28;20651;-45
2023/10/17 00:18:20;;;;;;;4.05;2.15;;;;;;;22.20;63.13;102125.78;4989867;28;20049;-46
2023/10/17 00:20:46;;;;;;;7.03;2.58;;;;;;;22.18;63.47;102117.78;4991112;28;20045;-47
2023/10/17 00:23:15;;;;;;;4.97;1.90;;;;;;;22.16;63.21;102125.50;4986975;28;20420;-48
2023/10/17 00:25:45;;;;;;;3.80;2.25;;;;;;;22.16;63.40;102117.22;4991177;28;20600;-47
2023/10/17 00:28:12;;;;;;;4.22;2.17;;;;;;;22.16;62.99;102119.97;4989270;28;20766;-47
2023/10/17 00:30:38;;;;;;;3.55;2.17;;;;;;;22.16;63.20;102121.91;4990173;28;20045;-48
2023/10/17 00:33:09;;;;;;;4.35;2.55;;;;;;;22.15;63.40;102111.97;4989039;28;21448;-55
2023/10/17 00:35:38;;;;;;;4.15;2.10;;;;;;;22.13;62.89;102112.22;4976160;28;20039;-56
2023/10/17 00:38:07;;;;;;;5.85;2.40;;;;;;;22.12;62.88;102105.06;4974924;28;20034;-57
2023/10/17 00:40:51;;;;;;;4.20;2.30;;;;;;;22.11;62.86;102098.72;4974779;28;20053;-47
2023/10/17 00:43:19;;;;;;;3.72;2.17;;;;;;;22.12;63.26;102099.53;5011027;28;20133;-48
2023/10/17 00:45:46;;;;;;;2.97;2.10;;;;;;;22.12;62.91;102100.38;5033256;28;20790;-57
2023/10/17 00:48:20;;;;;;;3.40;2.15;;;;;;;22.09;63.11;102106.44;5031749;28;20062;-56
2023/10/17 00:50:47;;;;;;;4.53;2.08;;;;;;;22.09;62.98;102098.16;5031604;28;20170;-46
2023/10/17 00:53:13;;;;;;;3.05;2.00;;;;;;;22.08;63.16;102099.28;5031031;28;20039;-47
2023/10/17 00:55:38;;;;;;;4.68;2.10;;;;;;;22.08;62.85;102107.56;5032912;28;20044;-48
2023/10/17 00:58:06;;;;;;;3.08;2.00;;;;;;;22.10;63.21;102108.09;5031228;28;20709;-46
2023/10/17 01:00:36;;;;;;;4.82;2.10;;;;;;;22.16;62.92;102094.28;5015138;28;20592;-58
2023/10/17 01:03:10;;;;;;;3.92;2.10;;;;;;;22.20;62.45;102085.19;5030816;28;20716;-58
2023/10/17 01:05:42;;;;;;;;;;;;;;;22.27;62.63;102095.97;5033943;28;20040;-56
2023/10/17 01:08:07;;;;;;;3.15;2.00;;;;;;;22.35;62.07;102094.56;5031118;28;19981;-56
2023/10/17 01:10:33;;;;;;;3.70;2.05;;;;;;;22.38;62.07;102091.31;5031428;28;20671;-56
2023/10/17 01:13:04;;;;;;;3.67;2.03;;;;;;;22.39;61.74;102081.88;5029934;28;20063;-56
2023/10/17 01:16:07;;;;;;;3.13;1.88;;;;;;;22.38;62.03;102092.13;5032831;28;20036;-56
2023/10/17 01:18:34;;;;;;;3.88;1.95;;;;;;;22.35;61.85;102080.78;5027351;28;20379;-56
2023/10/17 01:21:00;;;;;;;4.28;1.90;;;;;;;22.33;61.93;102077.44;5027906;28;20043;-56
2023/10/17 01:23:27;;;;;;;3.05;1.90;;;;;;;22.31;62.02;102072.22;5011082;28;20105;-56
2023/10/17 01:25:52;;;;;;;5.43;2.53;;;;;;;22.33;61.66;102066.41;5009762;28;20040;-55
2023/10/17 01:28:17;;;;;;;5.28;2.10;;;;;;;22.31;61.68;102063.09;5028972;28;20385;-55
2023/10/17 01:30:43;;;;;;;3.45;1.98;;;;;;;22.27;61.68;102058.13;5028581;28;20055;-57
2023/10/17 01:33:12;;;;;;;3.55;1.80;;;;;;;22.26;61.87;102066.69;5028891;28;20032;-56
2023/10/17 01:35:40;;;;;;;5.45;2.00;;;;;;;22.21;61.79;102059.22;5015278;28;20040;-56
2023/10/17 01:38:08;;;;;;;3.50;1.70;;;;;;;22.17;61.99;102063.66;5027426;28;20462;-47
2023/10/17 01:40:33;;;;;;;3.40;1.73;;;;;;;22.15;62.03;102062.28;5028213;28;20056;-46
2023/10/17 01:42:59;;;;;;;2.83;1.80;;;;;;;22.14;62.12;102068.91;5014385;28;20055;-49
2023/10/17 01:45:28;;;;;;;4.28;1.80;;;;;;;22.10;62.15;102063.09;5009972;28;20037;-46
2023/10/17 01:47:54;;;;;;;3.10;1.80;;;;;;;22.07;62.19;102067.25;5027836;28;20052;-46
2023/10/17 01:50:20;;;;;;;3.50;1.80;;;;;;;22.04;62.33;102053.97;5028517;28;20033;-55
2023/10/17 01:52:46;;;;;;;3.15;1.85;;;;;;;22.03;62.45;102052.31;5027349;28;20037;-56
2023/10/17 01:55:15;;;;;;;4.18;1.90;;;;;;;22.00;62.07;102047.38;5025293;28;21555;-56
2023/10/17 01:57:43;;;;;;;4.13;1.98;;;;;;;22.00;62.16;102046.50;5027381;28;20037;-49
2023/10/17 02:02:57;;;;;;;3.42;1.90;;;;;;;21.96;62.37;102037.97;5026604;28;20052;-47
2023/10/17 02:05:23;;;;;;;3.45;2.05;;;;;;;21.95;62.53;102039.91;5027858;28;20047;-47
2023/10/17 02:07:49;;;;;;;3.75;2.03;;;;;;;21.93;62.62;102036.56;5025323;28;20162;-47
2023/10/17 02:10:17;;;;;;;3.72;2.00;;;;;;;21.92;62.39;102026.63;5025958;28;20032;-47
2023/10/17 02:12:44;;;;;;;2.85;1.90;;;;;;;21.91;62.00;102035.19;5024914;28;20029;-46
2023/10/17 02:15:12;;;;;;;3.60;1.88;;;;;;;21.90;62.53;102041.81;5027320;28;20077;-47
2023/10/17 02:17:37;;;;;;;2.88;1.92;;;;;;;21.89;62.44;102041.00;5027306;28;21391;-47
2023/10/17 02:20:10;;;;;;;4.25;2.10;;;;;;;21.87;62.29;102034.91;5027837;28;20051;-46
2023/10/17 02:22:44;;;;;;;4.63;1.90;;;;;;;21.86;62.36;102036.03;5028144;28;20040;-46
2023/10/17 02:25:14;;;;;;;;;;;;;;;21.86;62.30;102041.53;5027782;28;20416;-48
2023/10/17 02:27:40;;;;;;;4.00;2.00;;;;;;;21.84;62.56;102041.00;5027008;28;20522;-49
2023/10/17 02:30:10;;;;;;;5.10;1.98;;;;;;;21.82;62.47;102037.69;5011183;28;20750;-46
2023/10/17 02:32:41;;;;;;;2.67;1.70;;;;;;;21.79;62.25;102044.59;5026590;28;20085;-49
2023/10/17 02:35:14;;;;;;;2.72;2.05;;;;;;;21.79;62.19;102038.25;5027902;28;20044;-49
2023/10/17 02:37:43;;;;;;;4.25;2.10;;;;;;;21.78;62.69;102036.59;5026479;28;20536;-48
2023/10/17 02:40:19;;;;;;;3.65;2.00;;;;;;;21.76;62.45;102036.03;5028156;28;20044;-47
2023/10/17 02:42:44;;;;;;;3.05;1.80;;;;;;;21.74;62.30;102036.31;5027399;28;20037;-50
2023/10/17 02:45:10;;;;;;;4.18;1.70;;;;;;;21.74;62.40;102038.22;5027360;28;20507;-47
2023/10/17 02:47:35;;;;;;;6.82;2.17;;;;;;;21.74;62.34;102041.81;5028308;28;20039;-48
2023/10/17 02:50:19;;;;;;;3.50;1.80;;;;;;;21.74;62.32;102041.81;5026943;28;20041;-50
2023/10/17 02:52:51;;;;;;;3.78;1.60;;;;;;;21.74;62.44;102040.97;5029162;28;20037;-46
2023/10/17 02:55:23;;;;;;;3.38;1.80;;;;;;;21.74;62.65;102035.44;5028503;28;20131;-48
2023/10/17 02:57:53;;;;;;;3.72;1.75;;;;;;;21.75;62.58;102039.88;5026024;28;20032;-47
2023/10/17 03:00:34;;;;;;;3.13;2.10;;;;;;;21.75;62.27;102040.72;5027648;28;20100;-47
2023/10/17 03:03:07;;;;;;;8.38;1.90;;;;;;;21.74;62.46;102035.44;5025087;28;20025;-57
2023/10/17 03:05:41;;;;;;;3.33;1.90;;;;;;;21.73;62.40;102040.16;5026925;28;20076;-56
2023/10/17 03:08:10;;;;;;;2.03;1.58;;;;;;;21.71;62.30;102036.84;5025998;28;20025;-56
2023/10/17 03:10:37;;;;;;;2.92;1.67;;;;;;;21.71;62.24;102039.59;5010622;28;20186;-56
2023/10/17 03:13:39;;;;;;;3.03;1.70;;;;;;;21.71;62.31;102044.28;5029170;28;20382;-56
2023/10/17 03:16:17;;;;;;;2.97;1.73;;;;;;;21.70;62.13;102045.38;5025593;28;20182;-56
2023/10/17 03:18:45;;;;;;;2.28;1.65;;;;;;;21.69;62.54;102046.50;5017112;28;20071;-56
2023/10/17 03:21:11;;;;;;;2.42;1.58;;;;;;;21.67;62.60;102044.00;5025817;28;20043;-56
2023/10/17 03:23:37;;;;;;;3.38;1.60;;;;;;;21.66;62.30;102047.06;5021520;28;20555;-56
2023/10/17 03:26:03;;;;;;;2.67;1.75;;;;;;;21.63;62.57;102048.41;5027288;28;20511;-56
2023/10/17 03:28:29;;;;;;;2.75;1.67;;;;;;;21.63;62.40;102038.22;5026428;28;20142;-55
2023/10/17 03:30:55;;;;;;;2.65;1.73;;;;;;;21.62;62.43;102042.06;5024466;28;20729;-54
2023/10/17 03:33:27;;;;;;;3.53;1.85;;;;;;;21.62;62.42;102044.81;5025882;28;20036;-56
2023/10/17 03:36:05;;;;;;;4.50;1.88;;;;;;;21.62;62.30;102039.31;5025998;28;20082;-49
2023/10/17 03:38:36;;;;;;;3.42;1.60;;;;;;;21.61;62.69;102032.13;5024992;28;20573;-47
2023/10/17 03:41:23;;;;;;;3.53;1.50;;;;;;;21.60;62.16;102038.75;5030013;28;20020;-46
2023/10/17 03:43:52;;;;;;;3.20;1.88;;;;;;;21.59;62.40;102045.38;5028487;28;20127;-47
2023/10/17 03:46:34;;;;;;;2.45;1.50;;;;;;;21.59;62.26;102047.28;5025593;28;20112;-49
2023/10/17 03:49:00;;;;;;;4.93;1.80;;;;;;;21.57;62.48;102053.09;5020336;28;21807;-56
2023/10/17 03:51:26;;;;;;;2.70;1.52;;;;;;;21.57;62.25;102052.25;5025979;28;20036;-55
2023/10/17 03:54:06;;;;;;;2.35;1.80;;;;;;;21.57;62.69;102061.38;5026694;28;20047;-57
2023/10/17 03:56:36;;;;;;;2.40;1.50;;;;;;;21.55;62.31;102055.25;5024080;28;20493;-55
2023/10/17 04:01:53;;;;;;;2.75;1.60;;;;;;;21.57;62.32;102057.75;4982632;28;20041;-56
2023/10/17 04:04:30;;;;;;;3.08;1.63;;;;;;;21.57;62.52;102063.28;5006346;28;21235;-55
2023/10/17 04:06:57;;;;;;;2.55;1.60;;;;;;;21.56;62.55;102061.63;5005656;28;20375;-56
2023/10/17 04:09:26;;;;;;;2.38;1.65;;;;;;;21.56;62.75;102065.22;5006057;28;20160;-56
2023/10/17 04:11:58;;;;;;;2.78;1.80;;;;;;;21.53;62.70;102056.63;4989400;28;20045;-55
2023/10/17 04:14:33;;;;;;;2.85;1.63;;;;;;;21.51;62.85;102047.78;5005726;28;21536;-55
2023/10/17 04:17:05;;;;;;;3.22;1.60;;;;;;;21.52;62.41;102058.56;4990996;28;20037;-56
2023/10/17 04:19:31;;;;;;;1.92;1.63;;;;;;;21.51;62.57;102061.56;5006357;28;21240;-54
2023/10/17 04:24:47;;;;;;;3.15;1.60;;;;;;;21.49;62.64;102050.81;5006816;28;20041;-56
2023/10/17 04:29:49;;;;;;;3.60;1.63;;;;;;;21.48;62.44;102057.44;5006354;28;20049;-57
2023/10/17 04:32:15;;;;;;;3.85;1.70;;;;;;;21.47;62.61;102044.75;5005680;28;20037;-56
2023/10/17 04:34:47;;;;;;;3.78;1.52;;;;;;;21.46;62.39;102052.19;5005949;28;20043;-55
2023/10/17 04:37:16;;;;;;;3.13;1.55;;;;;;;21.45;62.40;102044.22;5004185;28;20599;-53
2023/10/17 04:39:50;;;;;;;2.45;1.73;;;;;;;21.46;62.80;102040.34;5005837;28;20132;-46
2023/10/17 04:45:13;;;;;;;2.55;1.58;;;;;;;21.45;62.68;102046.97;5005672;28;20191;-49
2023/10/17 04:47:39;;;;;;;2.78;1.70;;;;;;;21.46;62.52;102046.69;5001834;28;20532;-46
2023/10/17 04:50:11;;;;;;;3.33;1.50;;;;;;;21.47;62.61;102047.50;4999112;28;20320;-46
2023/10/17 04:52:44;;;;;;;3.42;1.90;;;;;;;21.51;62.99;102048.63;4998075;28;20155;-47
2023/10/17 04:55:21;;;;;;;3.10;1.77;;;;;;;21.58;62.71;102053.91;4999974;28;20619;-49
2023/10/17 05:03:26;;;;;;;3.75;1.48;;;;;;;21.86;62.46;102047.06;5000795;28;20060;-48
2023/10/17 05:07:06;;;;;;;4.68;1.95;;;;;;;21.98;62.43;102033.00;5004081;28;20525;-47
2023/10/17 06:17:24;;;;;;;6.03;1.98;;;;;;;23.49;59.45;102020.47;5018990;28;20048;-56
2023/10/17 06:19:49;;;;;;;8.15;1.80;;;;;;;23.45;59.45;102002.81;5016812;28;20782;-48
2023/10/17 06:33:17;;;;;;;3.97;1.60;;;;;;;23.60;58.62;102019.28;4984521;28;20528;-48
2023/10/17 06:35:52;;;;;;;4.80;1.70;;;;;;;23.60;58.67;102027.59;5015341;28;21460;-44
2023/10/17 06:38:18;;;;;;;2.20;1.58;;;;;;;23.56;58.93;102027.34;5016169;28;21566;-55
2023/10/17 06:40:51;;;;;;;4.18;1.73;;;;;;;23.52;58.68;102026.25;5017388;28;20476;-48
2023/10/17 06:43:28;;;;;;;1.83;1.52;;;;;;;23.49;59.18;102029.59;5016232;28;20028;-48
2023/10/17 06:45:57;;;;;;;5.63;1.75;;;;;;;23.47;58.96;102036.53;5017696;28;20064;-47
2023/10/17 06:48:31;;;;;;;5.47;1.85;;;;;;;23.47;58.73;102025.47;5015804;28;20168;-51
2023/10/17 06:53:48;;;;;;;6.53;1.92;;;;;;;23.39;58.54;102030.47;5017228;28;21847;-47
2023/10/17 06:56:15;;;;;;;4.45;1.73;;;;;;;23.33;58.59;102025.28;5017225;28;20503;-47
2023/10/17 06:58:40;;;;;;;5.95;1.58;;;;;;;23.27;58.37;102030.00;4986143;28;20033;-49
2023/10/17 07:01:19;;;;;;;8.40;1.90;;;;;;;23.20;58.36;102032.25;5023321;28;20048;-57
2023/10/17 07:03:45;;;;;;;4.00;1.67;;;;;;;23.13;58.98;102027.00;5027363;28;20055;-52
2023/10/17 07:06:13;;;;;;;10.73;1.85;;;;;;;23.08;58.83;102027.84;5026758;28;20041;-58
2023/10/17 07:08:41;;;;;;;5.82;1.88;;;;;;;23.05;58.76;102030.34;5027821;28;20067;-57
2023/10/17 07:11:09;;;;;;;2.78;2.00;;;;;;;23.01;58.36;102032.84;5026407;28;20035;-57
2023/10/17 07:14:10;;;;;;;6.88;1.80;;;;;;;22.97;58.57;102026.25;5013997;28;20144;-57
2023/10/17 07:16:48;;;;;;;3.08;1.80;;;;;;;22.94;58.43;102031.50;5025502;28;20037;-57
2023/10/17 07:24:29;;;;;;;6.18;2.05;;;;;;;22.85;58.71;102025.72;5014794;28;20362;-47
2023/10/17 07:26:55;;;;;;;3.63;1.90;;;;;;;22.82;58.83;102015.22;5028542;28;20504;-49
2023/10/17 07:29:22;;;;;;;4.25;2.03;;;;;;;22.80;58.89;102025.75;5026556;28;20044;-48
2023/10/17 07:31:54;;;;;;;3.25;1.67;;;;;;;22.76;58.71;102022.72;5027850;28;20037;-50
2023/10/17 07:34:24;;;;;;;4.80;1.88;;;;;;;22.76;58.47;102031.00;5011971;28;20451;-48
2023/10/17 07:39:37;;;;;;;3.28;1.70;;;;;;;22.72;58.64;102019.69;5028204;28;20182;-51
2023/10/17 07:42:04;;;;;;;6.47;2.10;;;;;;;22.71;58.79;102014.44;5025898;28;20516;-57
2023/10/17 07:44:34;;;;;;;4.22;1.70;;;;;;;22.67;58.67;102007.81;5020753;28;20144;-56
2023/10/17 07:47:09;;;;;;;5.57;2.00;;;;;;;;;;5030342;28;20512;-56
2023/10/17 07:49:41;;;;;;;4.82;1.83;;;;;;;22.64;58.63;102011.16;5019976;28;20079;-57
2023/10/17 07:52:12;;;;;;;2.47;1.75;;;;;;;22.62;58.38;102014.19;5025965;28;20037;-57
2023/10/17 07:54:45;;;;;;;3.42;1.80;;;;;;;22.61;58.41;102012.53;5018561;28;20059;-57
2023/10/17 07:57:23;;;;;;;3.40;1.77;;;;;;;22.60;58.61;102014.47;5016363;28;20033;-57
2023/10/17 07:59:51;;;;;;;4.10;2.03;;;;;;;22.57;58.32;102009.53;5025733;28;21548;-58
2023/10/17 08:02:22;;;;;;;3.33;1.60;;;;;;;22.56;58.43;102018.91;5030964;28;21490;-57
2023/10/17 08:04:53;;;;;;;2.65;1.60;;;;;;;22.55;58.33;102019.16;5009820;28;20078;-57
2023/10/17 08:07:20;;;;;;;2.72;1.80;;;;;;;22.55;59.15;102019.16;5031541;28;20547;-57
2023/10/17 08:09:51;;;;;;;3.72;1.60;;;;;;;22.56;59.08;102016.16;5031151;28;20458;-57
2023/10/17 08:12:22;;;;;;;4.80;1.75;;;;;;;22.57;59.35;102016.97;5030775;28;20034;-56
2023/10/17 08:14:57;;;;;;;3.80;1.60;;;;;;;22.58;59.21;102013.91;5031202;28;20089;-56
2023/10/17 08:17:34;;;;;;;3.75;1.77;;;;;;;22.59;59.55;102012.81;5014097;28;20558;-57
2023/10/17 08:22:54;;;;;;;4.60;2.00;;;;;;;22.59;59.90;102014.75;5024853;28;20044;-57
2023/10/17 08:25:31;;;;;;;5.13;1.90;;;;;;;22.62;59.92;102013.38;5031065;28;20043;-56
2023/10/17 08:27:58;;;;;;;9.75;2.17;;;;;;;22.64;59.72;102011.16;5031716;28;21447;-56
2023/10/17 08:30:24;;;;;;;6.50;2.08;;;;;;;22.64;60.06;102011.97;5035505;28;20032;-57
2023/10/17 08:33:09;;;;;;;6.22;1.90;;;;;;;22.66;59.97;102014.44;5028074;28;20137;-56
2023/10/17 08:35:39;;;;;;;5.50;2.08;;;;;;;22.69;59.67;102025.75;5034376;28;20293;-57
2023/10/17 08:38:10;;;;;;;6.05;1.90;;;;;;;22.66;59.42;102028.25;5034961;28;20041;-57
2023/10/17 08:43:10;;;;;;;13.00;2.35;;;;;;;22.68;59.62;102035.16;5034316;28;20436;-57
2023/10/17 08:45:37;;;;;;;;;;;;;;;22.70;59.53;102035.72;5034944;28;20115;-56
2023/10/17 08:48:05;;;;;;;5.13;2.13;;;;;;;22.71;59.52;102036.53;5034567;28;19924;-57
2023/10/17 08:50:37;;;;;;;6.03;2.03;;;;;;;22.70;59.38;102044.00;5034425;28;20032;-57
2023/10/17 08:53:06;;;;;;;7.07;2.05;;;;;;;22.71;59.26;102039.28;5013079;28;20496;-57
2023/10/17 08:55:32;;;;;;;4.68;1.98;;;;;;;22.72;59.19;102038.19;5034162;28;20536;-55
2023/10/17 08:57:59;;;;;;;5.93;2.53;;;;;;;22.71;59.21;102039.28;5033383;28;20033;-57
2023/10/17 09:01:10;;;;;;;5.82;2.10;;;;;;;22.72;59.28;102029.91;5028876;28;20053;-57
2023/10/17 09:03:38;;;;;;;7.63;2.10;;;;;;;22.73;59.08;102031.56;5001861;28;20104;-57
2023/10/17 09:06:10;;;;;;;2.75;1.80;;;;;;;22.73;59.13;102037.94;5002002;28;20037;-57
2023/10/17 09:11:14;;;;;;;3.63;1.95;;;;;;;22.75;58.89;102043.19;5011629;28;20131;-56
2023/10/17 09:16:15;;;;;;;6.28;2.00;;;;;;;22.78;59.08;102036.25;5014692;28;20052;-57
2023/10/17 09:18:49;;;;;;;6.43;2.10;;;;;;;22.77;59.08;102024.38;5006424;28;20036;-56
2023/10/17 09:21:20;;;;;;;4.00;2.00;;;;;;;22.80;58.99;102023.00;5007355;28;20709;-57
2023/10/17 09:23:46;;;;;;;5.47;2.47;;;;;;;22.81;58.94;102022.69;5003725;28;20041;-57
2023/10/17 09:26:18;;;;;;;5.18;2.13;;;;;;;22.83;59.29;102023.25;4989786;28;20047;-57
2023/10/17 09:28:45;;;;;;;3.63;2.10;;;;;;;22.85;59.04;102022.97;5011186;28;20047;-57
2023/10/17 09:31:15;;;;;;;5.55;2.40;;;;;;;22.87;59.14;102026.28;5010741;28;20068;-56
2023/10/17 09:33:45;;;;;;;3.78;2.00;;;;;;;22.90;59.18;102022.94;5010461;28;20041;-56
2023/10/17 09:36:18;;;;;;;4.20;2.03;;;;;;;22.91;58.86;102022.66;5010247;28;20065;-57
2023/10/17 09:38:44;;;;;;;5.50;1.98;;;;;;;22.93;58.71;102027.91;5010401;28;20033;-56
2023/10/17 09:41:17;;;;;;;3.50;1.80;;;;;;;22.94;58.81;102031.50;5011795;28;20571;-57
2023/10/17 09:43:51;;;;;;;4.00;2.00;;;;;;;22.96;58.87;102026.53;5012265;28;20199;-56
2023/10/17 09:46:23;;;;;;;5.38;2.25;;;;;;;22.96;59.18;102021.00;5010713;28;20040;-55
2023/10/17 09:48:51;;;;;;;3.30;2.03;;;;;;;22.99;58.84;102010.19;5010786;28;20562;-57
2023/10/17 09:51:33;;;;;;;6.10;1.80;;;;;;;23.00;59.17;102011.84;5010699;28;20051;-56
2023/10/17 09:53:58;;;;;;;4.22;1.90;;;;;;;23.01;59.32;102009.91;5011070;28;20033;-57
2023/10/17 09:56:31;;;;;;;5.30;1.83;;;;;;;23.04;59.37;102014.84;5009329;28;20087;-55
2023/10/17 09:59:03;;;;;;;4.40;1.83;;;;;;;23.05;58.92;102013.75;5010929;28;20382;-57
2023/10/17 10:01:31;;;;;;;3.75;2.00;;;;;;;23.07;58.94;102006.84;5014415;28;20036;-57
2023/10/17 10:03:57;;;;;;;4.18;2.10;;;;;;;23.09;59.21;102006.56;5033052;28;20532;-57
2023/10/17 10:06:33;;;;;;;2.60;1.80;;;;;;;23.11;59.31;101997.97;5031932;28;20036;-57
2023/10/17 10:09:01;;;;;;;2.65;1.70;;;;;;;23.13;59.15;101990.25;5033209;28;20707;-56
2023/10/17 10:11:48;;;;;;;6.47;1.73;;;;;;;23.15;58.96;102002.66;5032930;28;20783;-56
2023/10/17 10:14:23;;;;;;;3.15;1.60;;;;;;;23.18;59.12;101988.28;5032396;28;20159;-56
2023/10/17 10:16:57;;;;;;;3.15;1.63;;;;;;;23.16;59.10;101986.88;5011172;28;20480;-57
2023/10/17 10:19:23;;;;;;;5.72;1.95;;;;;;;23.18;59.01;101990.25;5032732;28;21841;-56
2023/10/17 10:21:59;;;;;;;4.65;2.00;;;;;;;23.17;59.24;102002.41;5012652;28;20595;-54
2023/10/17 10:24:32;;;;;;;7.63;2.10;;;;;;;23.18;59.58;101999.34;5031183;28;20536;-57
2023/10/17 10:27:17;;;;;;;7.07;2.20;;;;;;;23.22;59.78;101994.06;5032789;28;20025;-57
2023/10/17 10:29:43;;;;;;;8.48;2.25;;;;;;;23.25;59.89;101996.28;5033097;28;20135;-58
2023/10/17 10:32:40;;;;;;;8.80;2.13;;;;;;;23.27;59.80;102010.63;5032623;28;20373;-57
2023/10/17 10:35:06;;;;;;;6.00;2.20;;;;;;;23.29;59.50;102002.88;5032679;28;20906;-57
2023/10/17 10:37:54;;;;;;;7.60;2.30;;;;;;;23.30;59.47;102000.94;5030499;28;20037;-57
2023/10/17 10:40:24;;;;;;;7.70;2.28;;;;;;;23.32;59.35;101984.88;5031487;28;20037;-57
2023/10/17 10:42:54;;;;;;;6.38;2.70;;;;;;;23.32;59.48;101980.22;5032497;28;21565;-55
2023/10/17 10:45:24;;;;;;;8.77;2.75;;;;;;;23.35;59.72;101982.38;5030947;28;20497;-57
2023/10/17 10:47:57;;;;;;;8.40;2.55;;;;;;;23.37;59.56;101993.16;5032272;28;20505;-57
2023/10/17 10:50:27;;;;;;;5.38;2.10;;;;;;;23.38;59.48;101981.81;5032255;28;20466;-57
2023/10/17 10:52:53;;;;;;;8.57;2.22;;;;;;;23.39;59.29;101969.63;5032062;28;20055;-57
2023/10/17 10:55:19;;;;;;;5.47;2.03;;;;;;;23.43;59.64;101969.06;5031764;28;20502;-57
2023/10/17 10:57:46;;;;;;;6.68;2.05;;;;;;;23.44;59.34;101963.22;5031669;28;20020;-57
2023/10/17 11:00:15;;;;;;;7.38;2.30;;;;;;;23.46;59.42;101969.31;5031626;28;20310;-58
2023/10/17 11:02:42;;;;;;;5.78;2.00;;;;;;;23.47;59.46;101964.59;5031959;28;20060;-55
2023/10/17 11:05:10;;;;;;;6.00;2.00;;;;;;;23.49;59.33;101970.69;5031424;28;20025;-57
2023/10/17 11:07:36;;;;;;;7.13;2.13;;;;;;;23.50;59.48;101967.63;5031207;28;20486;-57
2023/10/17 11:10:10;;;;;;;7.40;2.03;;;;;;;23.53;59.41;101966.22;5029878;28;20504;-51
2023/10/17 11:12:36;;;;;;;;;;;;;;;23.56;59.29;101954.59;5031086;28;20037;-49
2023/10/17 11:15:16;;;;;;;6.32;2.17;;;;;;;23.59;59.29;101955.94;5031785;28;20990;-57
2023/10/17 11:17:42;;;;;;;4.78;1.73;;;;;;;23.60;59.91;101952.88;5031962;28;20040;-57
2023/10/17 11:20:18;;;;;;;5.05;2.13;;;;;;;23.59;59.64;101942.91;5010503;28;20682;-56
2023/10/17 11:22:45;;;;;;;5.15;1.80;;;;;;;23.60;59.66;101938.22;5031605;28;20028;-57
2023/10/17 11:25:21;;;;;;;3.42;1.80;;;;;;;23.62;59.93;101933.25;5031970;28;20507;-49
2023/10/17 11:27:56;;;;;;;3.25;1.73;;;;;;;23.64;60.02;101925.47;5031445;28;20108;-47
2023/10/17 11:30:32;;;;;;;3.55;1.80;;;;;;;23.67;59.62;101928.47;5030941;28;21828;-48
2023/10/17 11:33:11;;;;;;;2.33;1.73;;;;;;;23.69;59.83;101919.88;5031871;28;20744;-47
2023/10/17 11:35:45;;;;;;;9.70;2.65;;;;;;;23.72;59.36;101916.53;5031577;28;20511;-48
2023/10/17 11:38:22;;;;;;;7.00;2.65;;;;;;;23.76;59.49;101919.56;5031679;28;20052;-56
2023/10/17 11:40:48;;;;;;;13.75;4.10;;;;;;;23.79;59.58;101916.19;5031678;28;20033;-56
2023/10/17 11:43:16;;;;;;;18.55;5.72;;;;;;;23.79;59.29;101922.56;5032592;28;20090;-47
2023/10/17 11:45:42;;;;;;;24.50;7.00;;;;;;;23.81;59.39;101920.34;5010598;28;21524;-48
2023/10/17 11:48:27;;;;;;;27.30;6.30;;;;;;;23.82;59.45;101905.38;5033201;28;20163;-47
2023/10/17 11:51:13;;;;;;;27.63;8.70;;;;;;;23.84;59.12;101907.88;5030981;28;20042;-56
2023/10/17 11:54:09;;;;;;;26.15;7.88;;;;;;;23.88;59.32;101897.84;5032502;28;20621;-55
2023/10/17 11:56:39;;;;;;;35.35;7.80;;;;;;;23.92;58.93;101895.31;5031195;28;20032;-56
2023/10/17 11:59:10;;;;;;;39.55;9.30;;;;;;;23.94;59.13;101893.13;5031812;28;20619;-47
2023/10/17 12:01:36;;;;;;;28.40;8.60;;;;;;;23.95;58.94;101892.81;5020332;28;20083;-47
2023/10/17 12:04:06;;;;;;;28.48;8.32;;;;;;;23.95;58.86;101884.53;5005670;28;20045;-55
2023/10/17 12:06:35;;;;;;;31.70;9.07;;;;;;;23.96;58.66;101886.19;5002345;28;20038;-55
2023/10/17 12:09:25;;;;;;;29.00;8.40;;;;;;;23.97;58.66;101873.16;5002845;28;20672;-46
2023/10/17 12:11:51;;;;;;;26.10;7.93;;;;;;;23.97;59.06;101862.06;4999095;28;20040;-47
2023/10/17 12:14:20;;;;;;;23.88;8.00;;;;;;;24.00;58.64;101864.28;5004625;28;20037;-46
2023/10/17 12:16:55;;;;;;;27.25;7.80;;;;;;;24.03;58.62;101861.75;5009233;28;20128;-46
2023/10/17 12:19:27;;;;;;;25.73;8.00;;;;;;;24.06;58.76;101851.19;5005214;28;20164;-55
2023/10/17 12:22:00;;;;;;;25.25;7.15;;;;;;;24.08;58.76;101852.53;5002051;28;20041;-54
2023/10/17 12:24:29;;;;;;;27.27;8.07;;;;;;;24.10;58.46;101855.84;5009936;28;20607;-55
2023/10/17 12:26:55;;;;;;;20.30;6.30;;;;;;;24.13;58.87;101844.19;4991694;28;20134;-56
2023/10/17 12:29:30;;;;;;;22.55;6.63;;;;;;;24.13;58.42;101838.66;5011911;28;20036;-57
2023/10/17 12:31:57;;;;;;;20.45;6.55;;;;;;;24.16;58.12;101834.47;5013064;28;20468;-45
2023/10/17 12:34:23;;;;;;;18.02;6.25;;;;;;;24.19;58.63;101831.09;5013085;28;21702;-56
2023/10/17 12:36:48;;;;;;;18.45;6.47;;;;;;;24.20;58.24;101835.50;5007944;28;20041;-56
2023/10/17 12:39:16;;;;;;;16.58;5.82;;;;;;;24.19;58.64;101842.16;4992735;28;20069;-47
2023/10/17 12:41:46;;;;;;;14.20;4.93;;;;;;;24.18;58.43;101834.97;4990719;28;20254;-48
2023/10/17 12:44:14;;;;;;;14.05;5.20;;;;;;;24.21;58.54;101828.84;5022006;28;20033;-46
2023/10/17 12:46:41;;;;;;;12.10;4.45;;;;;;;24.21;57.97;101830.81;5013070;28;21340;-56
2023/10/17 12:49:06;;;;;;;11.60;4.70;;;;;;;24.18;58.28;101818.34;5009109;28;20511;-56
2023/10/17 12:51:32;;;;;;;13.93;4.53;;;;;;;24.19;58.31;101817.22;5008550;28;20037;-56
2023/10/17 12:53:58;;;;;;;16.02;4.20;;;;;;;24.18;57.96;101810.88;5011142;28;20537;-56
2023/10/17 12:56:24;;;;;;;11.82;4.75;;;;;;;24.20;57.95;101810.59;5008445;28;20033;-56
2023/10/17 12:58:50;;;;;;;11.20;4.03;;;;;;;24.23;58.03;101800.84;5017243;28;20067;-48
2023/10/17 13:01:17;;;;;;;10.68;3.63;;;;;;;24.25;57.83;101810.50;4987084;28;20041;-48
2023/10/17 13:03:43;;;;;;;9.90;4.10;;;;;;;24.26;57.69;101803.03;5031479;28;20091;-49
2023/10/17 13:06:11;;;;;;;7.72;3.58;;;;;;;24.30;57.88;101795.78;5032612;28;20028;-47
2023/10/17 13:08:36;;;;;;;11.50;3.67;;;;;;;24.29;57.57;101800.50;5013062;28;21346;-48
2023/10/17 13:11:02;;;;;;;7.07;3.03;;;;;;;24.33;57.39;101797.97;5027852;28;20040;-50
2023/10/17 13:13:30;;;;;;;7.28;3.25;;;;;;;24.35;57.41;101791.00;5031535;28;20043;-47
2023/10/17 13:15:57;;;;;;;8.35;3.35;;;;;;;24.39;57.59;101795.94;5014893;28;20040;-49
2023/10/17 13:18:24;;;;;;;6.63;2.78;;;;;;;24.38;57.35;101794.28;5038041;28;20090;-46
2023/10/17 13:20:50;;;;;;;8.57;3.20;;;;;;;24.39;57.06;101785.69;5015535;28;20028;-46
2023/10/17 13:23:19;;;;;;;5.63;2.60;;;;;;;24.42;56.91;101787.84;5032969;28;20293;-48
2023/10/17 13:25:44;;;;;;;6.30;2.85;;;;;;;24.41;57.15;101775.13;5034592;28;20558;-46
2023/10/17 13:28:10;;;;;;;5.32;2.45;;;;;;;24.40;56.95;101775.41;5035509;28;20033;-47
2023/10/17 13:30:36;;;;;;;6.75;2.80;;;;;;;24.41;56.90;101772.34;5034440;28;20039;-46
2023/10/17 13:33:02;;;;;;;4.97;2.38;;;;;;;24.45;56.58;101778.13;5035897;28;20492;-46
2023/10/17 13:35:28;;;;;;;4.07;2.38;;;;;;;24.47;56.48;101778.66;5035124;28;20032;-47
2023/10/17 13:37:55;;;;;;;6.50;2.45;;;;;;;24.46;56.53;101772.28;5034963;28;20075;-46
2023/10/17 13:40:23;;;;;;;5.53;2.60;;;;;;;24.45;56.08;101762.34;5011925;28;20106;-47
2023/10/17 13:42:53;;;;;;;3.83;2.58;;;;;;;24.45;56.35;101762.34;5024671;28;21181;-48